LGAL/AXD METAR and TAF weather

Enter ICAO airport designator
Station Type Date Time Source
LGAL METAR 2019/04/20 18:20 UTC NOAA

LGAL 201820Z VRB02KT 9999 SCT035 08/03 Q1026


Station Type Date Time Source
LGAL Decoded METAR 2019/04/20 18:20 UTC NOAA

Alexandroupoli Airport , Greece (LGAL) 40-51N 025-55E 3M
Apr 20, 2019 - 02:20 PM EDT / 2019.04.20 1820 UTC
Wind: Variable at 2 MPH (2 KT):0
Visibility: greater than 7 mile(s):0
Sky conditions: partly cloudy
Temperature: 46 F (8 C)
Dew Point: 37 F (3 C)
Relative Humidity: 70%
Pressure (altimeter): 30.30 in. Hg (1026 hPa)
ob: LGAL 201820Z VRB02KT 9999 SCT035 08/03 Q1026
cycle: 18

Station Type Date Time Source
LGAL TAF 2012/09/21 03:06 UTC NOAA

TAF TAF LGAL 210200Z 2103/2115 03012G22KT 9999 FEW020 SCT070 PROB30
TEMPO 2103/2106 6000 RA SCT015 BKN030 PROB30

Example: see airport list